sensor_id;sensor_type;location;lat;lon;timestamp;pressure;altitude;pressure_sealevel;temperature;humidity
44001;BME280;29660;42.892;24.710;2022-12-18T00:00:28;97533.44;;;6.98;100.00
44001;BME280;29660;42.892;24.710;2022-12-18T00:05:30;97548.59;;;7.02;100.00
44001;BME280;29660;42.892;24.710;2022-12-18T00:10:32;97800.72;;;8.59;100.00
44001;BME280;29660;42.892;24.710;2022-12-18T00:15:35;97811.81;;;8.51;100.00
44001;BME280;29660;42.892;24.710;2022-12-18T00:20:38;97587.25;;;6.98;100.00
44001;BME280;29660;42.892;24.710;2022-12-18T00:25:40;97719.69;;;7.76;100.00
44001;BME280;29660;42.892;24.710;2022-12-18T00:30:42;97566.16;;;6.81;100.00
44001;BME280;29660;42.892;24.710;2022-12-18T00:35:44;97588.50;;;6.91;100.00
44001;BME280;29660;42.892;24.710;2022-12-18T00:40:48;97599.09;;;6.91;100.00
44001;BME280;29660;42.892;24.710;2022-12-18T00:45:50;97846.16;;;8.31;100.00
44001;BME280;29660;42.892;24.710;2022-12-18T00:50:53;97755.16;;;7.65;100.00
44001;BME280;29660;42.892;24.710;2022-12-18T00:55:55;97810.75;;;7.98;100.00
44001;BME280;29660;42.892;24.710;2022-12-18T01:00:57;97568.84;;;6.43;100.00
44001;BME280;29660;42.892;24.710;2022-12-18T01:05:59;97772.19;;;7.69;100.00
44001;BME280;29660;42.892;24.710;2022-12-18T01:11:20;97662.94;;;6.84;100.00
44001;BME280;29660;42.892;24.710;2022-12-18T01:16:23;97844.66;;;7.91;100.00
44001;BME280;29660;42.892;24.710;2022-12-18T01:21:25;97797.50;;;7.54;100.00
44001;BME280;29660;42.892;24.710;2022-12-18T01:26:28;97767.81;;;7.35;100.00
44001;BME280;29660;42.892;24.710;2022-12-18T01:31:33;97649.91;;;6.60;100.00
44001;BME280;29660;42.892;24.710;2022-12-18T01:36:37;97824.13;;;7.59;100.00
44001;BME280;29660;42.892;24.710;2022-12-18T01:41:41;97590.94;;;6.09;100.00
44001;BME280;29660;42.892;24.710;2022-12-18T01:47:02;97853.94;;;7.67;100.00
44001;BME280;29660;42.892;24.710;2022-12-18T01:52:05;97634.34;;;6.25;100.00
44001;BME280;29660;42.892;24.710;2022-12-18T01:57:07;97622.38;;;6.23;100.00
44001;BME280;29660;42.892;24.710;2022-12-18T02:02:30;97836.38;;;7.66;100.00
44001;BME280;29660;42.892;24.710;2022-12-18T02:13:01;97885.16;;;7.81;100.00
44001;BME280;29660;42.892;24.710;2022-12-18T02:18:14;97682.44;;;6.56;100.00
44001;BME280;29660;42.892;24.710;2022-12-18T02:23:51;97896.19;;;7.90;100.00
44001;BME280;29660;42.892;24.710;2022-12-18T02:29:02;97860.22;;;7.60;100.00
44001;BME280;29660;42.892;24.710;2022-12-18T02:34:08;97615.31;;;5.95;100.00
44001;BME280;29660;42.892;24.710;2022-12-18T02:39:13;97918.41;;;7.84;100.00
44001;BME280;29660;42.892;24.710;2022-12-18T02:44:29;97437.00;;;4.78;100.00
44001;BME280;29660;42.892;24.710;2022-12-18T03:00:12;97891.97;;;7.33;100.00
44001;BME280;29660;42.892;24.710;2022-12-18T03:05:21;97931.09;;;7.60;100.00
44001;BME280;29660;42.892;24.710;2022-12-18T03:10:30;97789.81;;;6.58;100.00
44001;BME280;29660;42.892;24.710;2022-12-18T03:15:44;97682.69;;;5.87;100.00
44001;BME280;29660;42.892;24.710;2022-12-18T03:20:51;97669.44;;;5.87;100.00
44001;BME280;29660;42.892;24.710;2022-12-18T03:25:59;97693.94;;;5.94;100.00
44001;BME280;29660;42.892;24.710;2022-12-18T03:31:12;97971.38;;;7.74;100.00
44001;BME280;29660;42.892;24.710;2022-12-18T03:36:16;97980.38;;;7.73;100.00
44001;BME280;29660;42.892;24.710;2022-12-18T03:52:07;98015.06;;;7.49;100.00
44001;BME280;29660;42.892;24.710;2022-12-18T03:57:23;97939.88;;;6.93;100.00
44001;BME280;29660;42.892;24.710;2022-12-18T04:02:28;98016.59;;;7.45;100.00
44001;BME280;29660;42.892;24.710;2022-12-18T04:07:35;98012.50;;;7.37;100.00
44001;BME280;29660;42.892;24.710;2022-12-18T04:12:38;97957.97;;;6.96;100.00
44001;BME280;29660;42.892;24.710;2022-12-18T04:17:48;97763.03;;;5.52;100.00
44001;BME280;29660;42.892;24.710;2022-12-18T04:22:53;97992.56;;;6.73;100.00
44001;BME280;29660;42.892;24.710;2022-12-18T04:27:55;98017.84;;;6.92;100.00
44001;BME280;29660;42.892;24.710;2022-12-18T04:32:57;97781.47;;;5.47;100.00
44001;BME280;29660;42.892;24.710;2022-12-18T04:38:00;98038.69;;;7.00;100.00
44001;BME280;29660;42.892;24.710;2022-12-18T04:43:03;98060.63;;;7.12;100.00
44001;BME280;29660;42.892;24.710;2022-12-18T04:48:05;98062.88;;;7.04;100.00
44001;BME280;29660;42.892;24.710;2022-12-18T04:53:07;97814.94;;;5.30;100.00
44001;BME280;29660;42.892;24.710;2022-12-18T04:58:09;97890.09;;;5.69;100.00
44001;BME280;29660;42.892;24.710;2022-12-18T05:03:11;98017.69;;;6.42;100.00
44001;BME280;29660;42.892;24.710;2022-12-18T05:08:13;98108.13;;;6.85;100.00
44001;BME280;29660;42.892;24.710;2022-12-18T05:13:15;97893.94;;;5.38;100.00
44001;BME280;29660;42.892;24.710;2022-12-18T05:18:17;98081.03;;;6.43;100.00
44001;BME280;29660;42.892;24.710;2022-12-18T05:23:20;97887.63;;;5.15;100.00
44001;BME280;29660;42.892;24.710;2022-12-18T05:28:24;98012.44;;;5.83;100.00
44001;BME280;29660;42.892;24.710;2022-12-18T05:33:29;97854.72;;;4.76;100.00
44001;BME280;29660;42.892;24.710;2022-12-18T05:38:33;97912.66;;;5.01;100.00
44001;BME280;29660;42.892;24.710;2022-12-18T05:43:36;97913.47;;;5.13;100.00
44001;BME280;29660;42.892;24.710;2022-12-18T05:48:40;97472.94;;;2.20;100.00
44001;BME280;29660;42.892;24.710;2022-12-18T05:53:42;97884.72;;;4.82;100.00
44001;BME280;29660;42.892;24.710;2022-12-18T05:58:45;97907.97;;;4.91;100.00
44001;BME280;29660;42.892;24.710;2022-12-18T06:03:47;97812.47;;;4.23;100.00
44001;BME280;29660;42.892;24.710;2022-12-18T06:08:49;98003.88;;;5.34;100.00
44001;BME280;29660;42.892;24.710;2022-12-18T06:13:53;97909.59;;;4.62;100.00
44001;BME280;29660;42.892;24.710;2022-12-18T06:19:01;98106.13;;;5.82;100.00
44001;BME280;29660;42.892;24.710;2022-12-18T06:24:22;97914.31;;;4.60;100.00
44001;BME280;29660;42.892;24.710;2022-12-18T06:29:24;98198.88;;;6.29;100.00
44001;BME280;29660;42.892;24.710;2022-12-18T06:34:26;97947.34;;;4.81;100.00
44001;BME280;29660;42.892;24.710;2022-12-18T06:39:28;97966.00;;;4.98;100.00
44001;BME280;29660;42.892;24.710;2022-12-18T06:44:30;98198.66;;;6.42;100.00
44001;BME280;29660;42.892;24.710;2022-12-18T06:49:32;98213.06;;;6.58;100.00
44001;BME280;29660;42.892;24.710;2022-12-18T06:54:34;98155.00;;;6.33;100.00
44001;BME280;29660;42.892;24.710;2022-12-18T06:59:36;97929.09;;;4.91;100.00
44001;BME280;29660;42.892;24.710;2022-12-18T07:04:38;98216.84;;;6.74;100.00
44001;BME280;29660;42.892;24.710;2022-12-18T07:09:40;98209.47;;;6.76;100.00
44001;BME280;29660;42.892;24.710;2022-12-18T07:14:42;98224.69;;;6.92;100.00
44001;BME280;29660;42.892;24.710;2022-12-18T07:19:44;98218.66;;;7.08;100.00
44001;BME280;29660;42.892;24.710;2022-12-18T07:24:49;97989.75;;;5.63;100.00
44001;BME280;29660;42.892;24.710;2022-12-18T07:29:51;97984.00;;;5.66;100.00
44001;BME280;29660;42.892;24.710;2022-12-18T07:34:53;98180.41;;;6.93;100.00
44001;BME280;29660;42.892;24.710;2022-12-18T07:39:55;98269.06;;;7.60;100.00
44001;BME280;29660;42.892;24.710;2022-12-18T07:45:01;98282.41;;;7.66;100.00
44001;BME280;29660;42.892;24.710;2022-12-18T07:50:04;98016.47;;;5.97;100.00
44001;BME280;29660;42.892;24.710;2022-12-18T07:55:07;97977.66;;;5.91;100.00
44001;BME280;29660;42.892;24.710;2022-12-18T08:00:10;98194.56;;;7.38;100.00
44001;BME280;29660;42.892;24.710;2022-12-18T08:05:15;98008.03;;;6.24;100.00
44001;BME280;29660;42.892;24.710;2022-12-18T08:10:17;98071.88;;;6.62;100.00
44001;BME280;29660;42.892;24.710;2022-12-18T08:15:20;98176.88;;;7.27;100.00
44001;BME280;29660;42.892;24.710;2022-12-18T08:20:22;98260.25;;;7.72;100.00
44001;BME280;29660;42.892;24.710;2022-12-18T08:25:24;98019.25;;;6.02;100.00
44001;BME280;29660;42.892;24.710;2022-12-18T08:30:26;98079.06;;;6.50;100.00
44001;BME280;29660;42.892;24.710;2022-12-18T08:35:29;98212.13;;;7.40;100.00
44001;BME280;29660;42.892;24.710;2022-12-18T08:40:36;98293.50;;;7.74;96.91
44001;BME280;29660;42.892;24.710;2022-12-18T08:45:38;98090.81;;;6.54;88.79
44001;BME280;29660;42.892;24.710;2022-12-18T08:50:40;98235.22;;;7.39;75.02
44001;BME280;29660;42.892;24.710;2022-12-18T08:55:43;98212.66;;;7.13;67.69
44001;BME280;29660;42.892;24.710;2022-12-18T09:00:50;98019.22;;;5.79;64.83
44001;BME280;29660;42.892;24.710;2022-12-18T09:05:52;98266.59;;;7.19;60.51
44001;BME280;29660;42.892;24.710;2022-12-18T09:10:55;98021.06;;;5.78;63.28
44001;BME280;29660;42.892;24.710;2022-12-18T09:15:58;98319.59;;;7.66;63.26
44001;BME280;29660;42.892;24.710;2022-12-18T09:21:07;98152.34;;;6.68;62.30
44001;BME280;29660;42.892;24.710;2022-12-18T09:26:09;98052.72;;;6.08;59.65
44001;BME280;29660;42.892;24.710;2022-12-18T09:31:12;98073.91;;;6.20;58.86
44001;BME280;29660;42.892;24.710;2022-12-18T09:36:18;98182.09;;;7.10;60.71
44001;BME280;29660;42.892;24.710;2022-12-18T09:46:42;98326.25;;;8.08;59.63
44001;BME280;29660;42.892;24.710;2022-12-18T09:51:51;98021.63;;;6.27;55.81
44001;BME280;29660;42.892;24.710;2022-12-18T09:56:54;98278.91;;;7.77;55.66
44001;BME280;29660;42.892;24.710;2022-12-18T10:02:19;98334.69;;;8.05;55.14
44001;BME280;29660;42.892;24.710;2022-12-18T10:13:18;98105.91;;;6.94;58.67
44001;BME280;29660;42.892;24.710;2022-12-18T10:28:59;98062.53;;;7.00;51.56
44001;BME280;29660;42.892;24.710;2022-12-18T10:34:10;98116.53;;;7.51;52.95
44001;BME280;29660;42.892;24.710;2022-12-18T10:39:18;98285.22;;;8.62;50.90
44001;BME280;29660;42.892;24.710;2022-12-18T10:44:22;98303.78;;;8.95;52.27
44001;BME280;29660;42.892;24.710;2022-12-18T10:49:30;98150.69;;;8.10;50.52
44001;BME280;29660;42.892;24.710;2022-12-18T10:54:35;98286.16;;;8.89;50.03
44001;BME280;29660;42.892;24.710;2022-12-18T10:59:53;98149.06;;;8.26;48.38
44001;BME280;29660;42.892;24.710;2022-12-18T11:04:56;98269.50;;;9.16;49.61
44001;BME280;29660;42.892;24.710;2022-12-18T11:10:05;98030.59;;;7.57;47.65
44001;BME280;29660;42.892;24.710;2022-12-18T11:15:16;98075.16;;;7.89;46.34
44001;BME280;29660;42.892;24.710;2022-12-18T11:20:27;98136.09;;;8.12;47.38
44001;BME280;29660;42.892;24.710;2022-12-18T11:25:32;98303.06;;;9.17;47.99
44001;BME280;29660;42.892;24.710;2022-12-18T11:30:36;98330.16;;;9.14;46.62
44001;BME280;29660;42.892;24.710;2022-12-18T11:35:55;98316.16;;;9.23;48.61
44001;BME280;29660;42.892;24.710;2022-12-18T11:41:04;98190.94;;;8.19;45.97
44001;BME280;29660;42.892;24.710;2022-12-18T11:46:15;98266.91;;;8.48;46.73
44001;BME280;29660;42.892;24.710;2022-12-18T11:51:31;98052.09;;;7.10;47.12
44001;BME280;29660;42.892;24.710;2022-12-18T11:56:36;98058.53;;;7.14;46.80
44001;BME280;29660;42.892;24.710;2022-12-18T12:01:50;98084.66;;;7.06;47.99
44001;BME280;29660;42.892;24.710;2022-12-18T12:12:20;98343.06;;;8.54;47.37
44001;BME280;29660;42.892;24.710;2022-12-18T12:22:43;98299.31;;;8.45;48.30
44001;BME280;29660;42.892;24.710;2022-12-18T12:38:41;98342.97;;;8.49;48.29
44001;BME280;29660;42.892;24.710;2022-12-18T12:43:50;98263.69;;;8.01;47.54
44001;BME280;29660;42.892;24.710;2022-12-18T12:48:55;98331.72;;;8.30;47.10
44001;BME280;29660;42.892;24.710;2022-12-18T12:54:00;98091.53;;;6.78;48.19
44001;BME280;29660;42.892;24.710;2022-12-18T13:04:47;98094.81;;;6.69;47.29
44001;BME280;29660;42.892;24.710;2022-12-18T13:10:31;98366.66;;;8.22;47.78
44001;BME280;29660;42.892;24.710;2022-12-18T13:15:37;98090.56;;;6.44;47.56
44001;BME280;29660;42.892;24.710;2022-12-18T13:36:42;98380.78;;;8.11;48.01
44001;BME280;29660;42.892;24.710;2022-12-18T13:41:46;98398.47;;;8.05;48.56
44001;BME280;29660;42.892;24.710;2022-12-18T13:46:50;98383.16;;;7.96;48.68
44001;BME280;29660;42.892;24.710;2022-12-18T13:51:55;98147.38;;;6.48;48.55
44001;BME280;29660;42.892;24.710;2022-12-18T13:56:57;98370.03;;;7.66;49.09
44001;BME280;29660;42.892;24.710;2022-12-18T14:02:05;98313.69;;;7.35;48.25
44001;BME280;29660;42.892;24.710;2022-12-18T14:07:14;98390.56;;;7.70;49.11
44001;BME280;29660;42.892;24.710;2022-12-18T14:12:22;98106.22;;;5.75;48.71
44001;BME280;29660;42.892;24.710;2022-12-18T14:17:44;98380.81;;;7.47;49.72
44001;BME280;29660;42.892;24.710;2022-12-18T14:22:48;97892.28;;;4.25;51.73
44001;BME280;29660;42.892;24.710;2022-12-18T14:28:07;98360.31;;;7.07;49.64
44001;BME280;29660;42.892;24.710;2022-12-18T14:33:24;98410.56;;;7.26;48.51
44001;BME280;29660;42.892;24.710;2022-12-18T14:38:32;98142.03;;;5.36;49.16
44001;BME280;29660;42.892;24.710;2022-12-18T14:43:36;98374.78;;;6.70;47.94
44001;BME280;29660;42.892;24.710;2022-12-18T14:48:43;98420.09;;;6.92;48.09
44001;BME280;29660;42.892;24.710;2022-12-18T14:53:55;98139.16;;;5.07;46.72
44001;BME280;29660;42.892;24.710;2022-12-18T14:59:04;98373.53;;;6.42;46.09
44001;BME280;29660;42.892;24.710;2022-12-18T15:09:27;98219.25;;;5.26;47.60
44001;BME280;29660;42.892;24.710;2022-12-18T15:14:31;98457.53;;;6.72;46.92
44001;BME280;29660;42.892;24.710;2022-12-18T15:19:39;98460.72;;;6.62;48.21
44001;BME280;29660;42.892;24.710;2022-12-18T15:24:42;98364.81;;;5.93;48.97
44001;BME280;29660;42.892;24.710;2022-12-18T15:35:28;98192.91;;;4.64;49.96
44001;BME280;29660;42.892;24.710;2022-12-18T15:40:30;98176.41;;;4.44;50.30
44001;BME280;29660;42.892;24.710;2022-12-18T15:45:32;98435.28;;;5.94;51.66
44001;BME280;29660;42.892;24.710;2022-12-18T15:50:34;98489.72;;;6.08;52.96
44001;BME280;29660;42.892;24.710;2022-12-18T15:55:37;98497.88;;;6.07;54.51
44001;BME280;29660;42.892;24.710;2022-12-18T16:01:01;98235.94;;;4.22;54.50
44001;BME280;29660;42.892;24.710;2022-12-18T16:06:04;98500.63;;;5.75;55.81
44001;BME280;29660;42.892;24.710;2022-12-18T16:11:06;98247.03;;;4.05;56.52
44001;BME280;29660;42.892;24.710;2022-12-18T16:16:10;98472.31;;;5.32;57.59
44001;BME280;29660;42.892;24.710;2022-12-18T16:21:12;98371.25;;;4.49;56.71
44001;BME280;29660;42.892;24.710;2022-12-18T16:26:14;98554.28;;;5.39;57.64
44001;BME280;29660;42.892;24.710;2022-12-18T16:31:16;98562.00;;;5.34;57.33
44001;BME280;29660;42.892;24.710;2022-12-18T16:36:18;98563.28;;;5.31;57.45
44001;BME280;29660;42.892;24.710;2022-12-18T16:41:20;98424.78;;;4.31;56.03
44001;BME280;29660;42.892;24.710;2022-12-18T16:46:34;98551.28;;;4.97;55.59
44001;BME280;29660;42.892;24.710;2022-12-18T16:51:37;98586.00;;;5.07;55.82
44001;BME280;29660;42.892;24.710;2022-12-18T16:56:39;98100.09;;;1.88;55.29
44001;BME280;29660;42.892;24.710;2022-12-18T17:01:43;98594.06;;;4.81;56.16
44001;BME280;29660;42.892;24.710;2022-12-18T17:07:04;98352.50;;;3.22;56.01
44001;BME280;29660;42.892;24.710;2022-12-18T17:12:06;98327.03;;;2.96;56.24
44001;BME280;29660;42.892;24.710;2022-12-18T17:17:08;98645.50;;;4.85;56.99
44001;BME280;29660;42.892;24.710;2022-12-18T17:22:25;98679.44;;;4.88;56.75
44001;BME280;29660;42.892;24.710;2022-12-18T17:27:27;98404.44;;;3.08;57.49
44001;BME280;29660;42.892;24.710;2022-12-18T17:32:29;98651.88;;;4.57;57.64
44001;BME280;29660;42.892;24.710;2022-12-18T17:37:33;98405.25;;;2.89;58.66
44001;BME280;29660;42.892;24.710;2022-12-18T17:42:35;98689.47;;;4.59;58.21
44001;BME280;29660;42.892;24.710;2022-12-18T17:47:37;98386.19;;;2.74;57.93
44001;BME280;29660;42.892;24.710;2022-12-18T17:52:39;98458.78;;;3.09;57.70
44001;BME280;29660;42.892;24.710;2022-12-18T17:57:41;98296.00;;;1.99;59.39
44001;BME280;29660;42.892;24.710;2022-12-18T18:02:43;98607.28;;;3.96;60.23
44001;BME280;29660;42.892;24.710;2022-12-18T18:07:46;98651.53;;;4.21;59.83
44001;BME280;29660;42.892;24.710;2022-12-18T18:12:47;98720.38;;;4.52;60.46
44001;BME280;29660;42.892;24.710;2022-12-18T18:18:08;98460.97;;;2.73;62.48
44001;BME280;29660;42.892;24.710;2022-12-18T18:23:10;98569.53;;;3.36;62.47
44001;BME280;29660;42.892;24.710;2022-12-18T18:28:12;98704.94;;;4.23;62.94
44001;BME280;29660;42.892;24.710;2022-12-18T18:33:14;98491.16;;;2.77;64.42
44001;BME280;29660;42.892;24.710;2022-12-18T18:38:16;98726.09;;;4.29;65.02
44001;BME280;29660;42.892;24.710;2022-12-18T18:43:19;98545.78;;;3.16;64.85
44001;BME280;29660;42.892;24.710;2022-12-18T18:48:21;98458.72;;;2.56;66.54
44001;BME280;29660;42.892;24.710;2022-12-18T18:53:23;98423.66;;;2.49;65.74
44001;BME280;29660;42.892;24.710;2022-12-18T18:58:26;98679.75;;;4.00;66.59
44001;BME280;29660;42.892;24.710;2022-12-18T19:03:28;98461.56;;;2.61;66.92
44001;BME280;29660;42.892;24.710;2022-12-18T19:08:33;98766.91;;;4.27;69.49
44001;BME280;29660;42.892;24.710;2022-12-18T19:13:35;98423.31;;;2.04;71.10
44001;BME280;29660;42.892;24.710;2022-12-18T19:18:37;98474.22;;;2.25;72.17
44001;BME280;29660;42.892;24.710;2022-12-18T19:23:41;98537.66;;;2.43;72.59
44001;BME280;29660;42.892;24.710;2022-12-18T19:28:43;98777.81;;;3.84;71.50
44001;BME280;29660;42.892;24.710;2022-12-18T19:33:47;98550.72;;;2.16;69.35
44001;BME280;29660;42.892;24.710;2022-12-18T19:38:50;98798.41;;;3.47;68.15
44001;BME280;29660;42.892;24.710;2022-12-18T19:43:53;98728.34;;;2.90;68.81
44001;BME280;29660;42.892;24.710;2022-12-18T19:48:58;98792.22;;;2.92;69.09
44001;BME280;29660;42.892;24.710;2022-12-18T19:54:00;98513.13;;;0.89;70.00
44001;BME280;29660;42.892;24.710;2022-12-18T19:59:03;98704.84;;;2.04;70.77
44001;BME280;29660;42.892;24.710;2022-12-18T20:04:07;98740.00;;;2.18;70.78
44001;BME280;29660;42.892;24.710;2022-12-18T20:09:09;98827.00;;;2.53;72.38
44001;BME280;29660;42.892;24.710;2022-12-18T20:14:13;98552.19;;;0.77;72.41
44001;BME280;29660;42.892;24.710;2022-12-18T20:19:19;98516.50;;;0.46;70.75
44001;BME280;29660;42.892;24.710;2022-12-18T20:24:21;98799.09;;;2.15;72.35
44001;BME280;29660;42.892;24.710;2022-12-18T20:29:24;98601.41;;;0.90;71.76
44001;BME280;29660;42.892;24.710;2022-12-18T20:34:26;98855.78;;;2.33;72.20
44001;BME280;29660;42.892;24.710;2022-12-18T20:39:28;98772.84;;;1.79;72.08
44001;BME280;29660;42.892;24.710;2022-12-18T20:44:34;98620.38;;;0.70;72.19
44001;BME280;29660;42.892;24.710;2022-12-18T20:49:37;98880.81;;;2.07;73.72
44001;BME280;29660;42.892;24.710;2022-12-18T20:54:40;98823.91;;;1.85;73.70
44001;BME280;29660;42.892;24.710;2022-12-18T20:59:42;98818.72;;;1.77;74.35
44001;BME280;29660;42.892;24.710;2022-12-18T21:04:49;98601.13;;;0.34;73.72
44001;BME280;29660;42.892;24.710;2022-12-18T21:09:52;98899.78;;;2.03;74.71
44001;BME280;29660;42.892;24.710;2022-12-18T21:14:54;98881.13;;;1.98;74.59
44001;BME280;29660;42.892;24.710;2022-12-18T21:19:56;98632.53;;;0.42;74.66
44001;BME280;29660;42.892;24.710;2022-12-18T21:24:58;98887.19;;;1.98;76.08
44001;BME280;29660;42.892;24.710;2022-12-18T21:30:00;98615.16;;;0.26;74.99
44001;BME280;29660;42.892;24.710;2022-12-18T21:35:02;98885.66;;;1.89;76.86
44001;BME280;29660;42.892;24.710;2022-12-18T21:40:05;98892.56;;;1.90;75.00
44001;BME280;29660;42.892;24.710;2022-12-18T21:45:08;98832.19;;;1.67;76.08
44001;BME280;29660;42.892;24.710;2022-12-18T21:50:10;98873.88;;;1.85;75.83
44001;BME280;29660;42.892;24.710;2022-12-18T21:55:12;98864.69;;;1.81;75.26
44001;BME280;29660;42.892;24.710;2022-12-18T22:00:15;98867.72;;;1.78;76.94
44001;BME280;29660;42.892;24.710;2022-12-18T22:05:20;98783.38;;;1.13;77.25
44001;BME280;29660;42.892;24.710;2022-12-18T22:10:22;98900.34;;;1.98;76.14
44001;BME280;29660;42.892;24.710;2022-12-18T22:15:24;98875.22;;;1.81;75.00
44001;BME280;29660;42.892;24.710;2022-12-18T22:20:27;98561.81;;;0.04;73.71
44001;BME280;29660;42.892;24.710;2022-12-18T22:25:30;98712.84;;;0.95;73.94
44001;BME280;29660;42.892;24.710;2022-12-18T22:30:32;98841.03;;;1.81;73.94
44001;BME280;29660;42.892;24.710;2022-12-18T22:35:34;98608.56;;;0.30;74.60
44001;BME280;29660;42.892;24.710;2022-12-18T22:40:36;98907.69;;;2.03;74.99
44001;BME280;29660;42.892;24.710;2022-12-18T22:45:38;98896.19;;;1.89;75.19
44001;BME280;29660;42.892;24.710;2022-12-18T22:50:40;98861.03;;;1.60;75.78
44001;BME280;29660;42.892;24.710;2022-12-18T22:55:42;98671.19;;;0.33;77.75
44001;BME280;29660;42.892;24.710;2022-12-18T23:00:44;98706.22;;;0.55;76.92
44001;BME280;29660;42.892;24.710;2022-12-18T23:05:46;98666.56;;;0.20;78.84
44001;BME280;29660;42.892;24.710;2022-12-18T23:10:51;98708.38;;;0.37;78.34
44001;BME280;29660;42.892;24.710;2022-12-18T23:15:54;98631.69;;;-0.03;78.40
44001;BME280;29660;42.892;24.710;2022-12-18T23:20:56;98817.06;;;1.10;77.65
44001;BME280;29660;42.892;24.710;2022-12-18T23:26:00;98847.25;;;0.99;77.35
44001;BME280;29660;42.892;24.710;2022-12-18T23:31:27;98599.38;;;-0.56;77.16
44001;BME280;29660;42.892;24.710;2022-12-18T23:36:30;98903.53;;;1.19;78.74
44001;BME280;29660;42.892;24.710;2022-12-18T23:41:33;98658.63;;;-0.47;79.13
44001;BME280;29660;42.892;24.710;2022-12-18T23:46:35;98657.03;;;-0.56;80.65
44001;BME280;29660;42.892;24.710;2022-12-18T23:51:38;98647.75;;;-0.67;80.72
44001;BME280;29660;42.892;24.710;2022-12-18T23:56:40;98921.09;;;1.04;80.51
